Time;durP1;ratioP1;P1;durP2;ratioP2;P2;SDS_P1;SDS_P2;PMS_P1;PMS_P2;Temp;Humidity;BMP_temperature;BMP_pressure;BME280_temperature;BME280_humidity;BME280_pressure;Samples;Min_cycle;Max_cycle;Signal;HPM_P1;HPM_P2
2022/07/04 00:00:42;;;;;;;0.05;0.00;;;15.10;74.30;;;;;;5076674;22;114797;-60
2022/07/04 00:02:49;;;;;;;0.00;0.00;;;15.00;74.30;;;;;;5074524;22;114637;-60
2022/07/04 00:04:52;;;;;;;0.00;0.00;;;15.00;74.40;;;;;;5075145;22;114687;-60
2022/07/04 00:06:57;;;;;;;0.00;0.00;;;15.00;74.50;;;;;;5074178;22;114298;-60
2022/07/04 00:09:00;;;;;;;0.00;0.00;;;15.00;74.70;;;;;;5076030;22;114784;-60
2022/07/04 00:11:04;;;;;;;0.00;0.00;;;14.90;74.70;;;;;;5076705;22;115040;-60
2022/07/04 00:13:07;;;;;;;0.00;0.00;;;15.00;74.80;;;;;;5076485;22;115075;-60
2022/07/04 00:15:13;;;;;;;0.00;0.00;;;14.90;74.80;;;;;;5075004;22;114703;-60
2022/07/04 00:17:16;;;;;;;0.00;0.00;;;14.90;74.90;;;;;;5073894;22;114510;-60
2022/07/04 00:19:19;;;;;;;0.00;0.00;;;14.90;75.50;;;;;;5076514;22;114771;-60
2022/07/04 00:21:22;;;;;;;0.00;0.00;;;14.90;74.90;;;;;;5076985;22;114920;-60
2022/07/04 00:23:27;;;;;;;0.00;0.00;;;14.80;75.00;;;;;;5077337;22;115478;-60
2022/07/04 00:25:30;;;;;;;0.00;0.00;;;14.80;75.20;;;;;;5077372;22;114829;-59
2022/07/04 00:27:33;;;;;;;0.00;0.00;;;14.80;75.20;;;;;;5077394;22;114731;-60
2022/07/04 00:29:36;;;;;;;0.00;0.00;;;14.80;75.30;;;;;;5077058;22;114906;-60
2022/07/04 00:31:39;;;;;;;0.00;0.00;;;14.80;75.40;;;;;;5077489;22;114676;-60
2022/07/04 00:33:43;;;;;;;0.00;0.00;;;14.80;75.50;;;;;;5075755;22;114463;-61
2022/07/04 00:35:46;;;;;;;0.00;0.00;;;14.80;75.50;;;;;;5077104;22;115028;-60
2022/07/04 00:37:50;;;;;;;0.00;0.00;;;14.80;75.60;;;;;;5077660;22;115437;-60
2022/07/04 00:39:55;;;;;;;0.00;0.00;;;14.80;75.60;;;;;;5049023;23;114723;-60
2022/07/04 00:41:58;;;;;;;0.10;0.00;;;14.80;75.70;;;;;;5077245;22;115355;-60
2022/07/04 00:44:02;;;;;;;0.00;0.00;;;14.80;75.80;;;;;;5076616;22;114689;-60
2022/07/04 00:46:14;;;;;;;0.00;0.00;;;14.80;75.80;;;;;;5077109;22;114595;-60
2022/07/04 00:48:18;;;;;;;0.00;0.00;;;14.80;75.90;;;;;;5077373;22;114529;-60
2022/07/04 00:50:22;;;;;;;0.00;0.00;;;14.80;76.00;;;;;;5077490;22;114666;-60
2022/07/04 00:52:25;;;;;;;0.00;0.00;;;14.80;75.80;;;;;;5076959;22;115084;-60
2022/07/04 00:54:32;;;;;;;0.00;0.00;;;14.80;76.00;;;;;;5076907;22;114969;-60
2022/07/04 00:56:39;;;;;;;0.00;0.00;;;14.80;76.10;;;;;;5075849;22;115491;-60
2022/07/04 00:58:42;;;;;;;0.10;0.00;;;14.80;76.20;;;;;;5075225;22;114268;-60
2022/07/04 01:00:45;;;;;;;0.00;0.00;;;14.80;76.00;;;;;;5075799;22;113949;-60
2022/07/04 01:02:48;;;;;;;0.00;0.00;;;14.80;76.30;;;;;;5076979;22;114911;-60
2022/07/04 01:04:51;;;;;;;0.00;0.00;;;14.70;76.30;;;;;;5077667;22;114724;-60
2022/07/04 01:06:56;;;;;;;0.00;0.00;;;14.80;76.30;;;;;;5077715;22;114949;-60
2022/07/04 01:09:00;;;;;;;0.00;0.00;;;14.70;76.20;;;;;;5050259;23;116353;-60
2022/07/04 01:11:03;;;;;;;0.00;0.00;;;14.70;76.30;;;;;;5077833;22;114850;-60
2022/07/04 01:13:07;;;;;;;0.00;0.00;;;14.60;76.40;;;;;;5077411;22;114952;-60
2022/07/04 01:15:11;;;;;;;0.00;0.00;;;14.60;76.50;;;;;;5075960;22;114269;-61
2022/07/04 01:17:14;;;;;;;0.00;0.00;;;14.60;76.70;;;;;;5077488;22;114257;-61
2022/07/04 01:19:17;;;;;;;0.00;0.00;;;14.60;76.70;;;;;;5077387;22;114613;-60
2022/07/04 01:21:22;;;;;;;0.00;0.00;;;14.60;76.80;;;;;;5077214;22;114810;-60
2022/07/04 01:23:25;;;;;;;0.00;0.00;;;14.50;76.90;;;;;;5075731;22;114476;-60
2022/07/04 01:25:28;;;;;;;0.00;0.00;;;14.40;76.90;;;;;;5076423;22;114698;-60
2022/07/04 01:27:31;;;;;;;0.00;0.00;;;14.40;77.30;;;;;;5077640;22;114745;-60
2022/07/04 01:29:34;;;;;;;0.00;0.00;;;14.30;77.40;;;;;;5077221;22;114750;-60
2022/07/04 01:31:38;;;;;;;0.00;0.00;;;14.30;77.50;;;;;;5077034;22;114822;-60
2022/07/04 01:33:41;;;;;;;0.00;0.00;;;14.20;77.60;;;;;;5077751;22;115051;-60
2022/07/04 01:35:44;;;;;;;0.00;0.00;;;14.20;77.80;;;;;;5078331;22;114770;-60
2022/07/04 01:37:48;;;;;;;0.00;0.00;;;14.20;77.90;;;;;;5077789;22;114818;-60
2022/07/04 01:39:52;;;;;;;0.00;0.00;;;14.20;78.10;;;;;;5078228;22;114752;-60
2022/07/04 01:41:55;;;;;;;0.00;0.00;;;14.20;78.30;;;;;;5076483;22;113804;-60
2022/07/04 01:43:58;;;;;;;0.00;0.00;;;14.20;78.40;;;;;;5077058;22;114137;-60
2022/07/04 01:46:01;;;;;;;0.00;0.00;;;14.20;78.30;;;;;;5076610;22;115890;-60
2022/07/04 01:48:05;;;;;;;0.00;0.00;;;14.20;78.50;;;;;;5076604;22;114792;-60
2022/07/04 01:50:12;;;;;;;0.00;0.00;;;14.20;78.70;;;;;;5077178;22;114788;-60
2022/07/04 01:52:15;;;;;;;0.00;0.00;;;14.20;79.00;;;;;;5077435;22;114696;-60
2022/07/04 01:54:20;;;;;;;0.00;0.00;;;14.20;79.00;;;;;;5077763;22;114683;-60
2022/07/04 01:56:23;;;;;;;0.00;0.00;;;14.30;79.50;;;;;;5075082;22;115189;-60
2022/07/04 01:58:26;;;;;;;0.00;0.00;;;14.30;79.40;;;;;;5077948;22;114630;-60
2022/07/04 02:02:51;;;;;;;0.00;0.00;;;14.30;79.50;;;;;;5076070;22;115360;-60
2022/07/04 02:04:54;;;;;;;0.10;0.00;;;14.30;79.60;;;;;;5077111;22;114328;-60
2022/07/04 02:07:00;;;;;;;0.00;0.00;;;14.20;79.60;;;;;;5077634;22;114658;-60
2022/07/04 02:09:19;;;;;;;0.00;0.00;;;14.20;79.80;;;;;;5076652;22;114002;-60
2022/07/04 02:11:23;;;;;;;0.00;0.00;;;14.20;79.90;;;;;;5077317;22;114959;-60
2022/07/04 02:13:26;;;;;;;0.00;0.00;;;14.20;79.90;;;;;;5076432;22;114347;-59
2022/07/04 02:15:29;;;;;;;0.00;0.00;;;14.20;80.10;;;;;;5078662;22;114987;-60
2022/07/04 02:17:32;;;;;;;0.00;0.00;;;14.10;80.10;;;;;;5077536;22;114875;-60
2022/07/04 02:19:36;;;;;;;0.00;0.00;;;14.10;80.40;;;;;;5076177;22;115320;-60
2022/07/04 02:21:39;;;;;;;0.10;0.00;;;14.00;81.00;;;;;;5076856;22;114885;-60
2022/07/04 02:23:42;;;;;;;0.00;0.00;;;14.00;80.80;;;;;;5077757;22;114200;-60
2022/07/04 02:25:45;;;;;;;0.00;0.00;;;14.00;80.90;;;;;;5076135;22;113910;-60
2022/07/04 02:27:49;;;;;;;0.00;0.00;;;14.00;80.90;;;;;;5076502;22;114382;-59
2022/07/04 02:29:52;;;;;;;0.00;0.00;;;14.00;81.00;;;;;;5076014;22;114746;-60
2022/07/04 02:31:56;;;;;;;0.00;0.00;;;14.00;81.10;;;;;;5076684;22;114796;-60
2022/07/04 02:33:59;;;;;;;0.00;0.00;;;14.00;81.30;;;;;;5076528;22;114985;-60
2022/07/04 02:36:02;;;;;;;0.00;0.00;;;14.00;81.40;;;;;;5077003;22;114880;-60
2022/07/04 02:38:05;;;;;;;0.00;0.00;;;14.00;81.50;;;;;;5076489;22;113845;-60
2022/07/04 02:40:09;;;;;;;0.00;0.00;;;14.10;81.50;;;;;;5049338;23;115377;-61
2022/07/04 02:42:12;;;;;;;0.00;0.00;;;14.00;81.70;;;;;;5076964;22;114843;-61
2022/07/04 02:44:17;;;;;;;0.00;0.00;;;14.00;81.70;;;;;;5075683;22;114445;-61
2022/07/04 02:46:20;;;;;;;0.00;0.00;;;14.00;81.80;;;;;;5077757;22;114835;-61
2022/07/04 02:48:23;;;;;;;0.00;0.00;;;14.10;81.80;;;;;;5077355;22;114736;-60
2022/07/04 02:50:26;;;;;;;0.00;0.00;;;14.10;81.90;;;;;;5077268;22;114673;-60
2022/07/04 02:52:30;;;;;;;0.00;0.00;;;14.00;81.90;;;;;;5076731;22;114812;-61
2022/07/04 02:54:33;;;;;;;0.00;0.00;;;14.00;82.10;;;;;;5076040;22;116407;-60
2022/07/04 02:56:38;;;;;;;0.00;0.00;;;14.00;82.10;;;;;;5076874;22;115098;-60
2022/07/04 02:58:44;;;;;;;0.00;0.00;;;14.00;82.20;;;;;;5049857;23;116352;-61
2022/07/04 03:00:50;;;;;;;0.00;0.00;;;14.10;82.40;;;;;;5075481;22;113767;-61
2022/07/04 03:02:54;;;;;;;0.00;0.00;;;14.10;82.50;;;;;;5076548;22;114898;-60
2022/07/04 03:04:57;;;;;;;0.00;0.00;;;14.10;82.50;;;;;;5076308;22;114788;-60
2022/07/04 03:07:01;;;;;;;0.00;0.00;;;14.00;82.50;;;;;;5077162;22;114803;-60
2022/07/04 03:09:04;;;;;;;0.00;0.00;;;14.10;82.70;;;;;;5075582;22;115408;-60
2022/07/04 03:11:08;;;;;;;0.00;0.00;;;14.10;82.70;;;;;;5077194;22;114772;-60
2022/07/04 03:13:11;;;;;;;0.00;0.00;;;14.10;82.90;;;;;;5077337;22;113736;-60
2022/07/04 03:15:14;;;;;;;0.00;0.00;;;14.10;83.00;;;;;;5076954;22;114729;-60
2022/07/04 03:17:19;;;;;;;0.00;0.00;;;14.10;83.10;;;;;;5076428;22;113752;-60
2022/07/04 03:19:22;;;;;;;0.00;0.00;;;14.10;83.10;;;;;;5076218;22;114820;-61
2022/07/04 03:21:25;;;;;;;0.00;0.00;;;14.10;83.20;;;;;;5076216;22;114697;-61
2022/07/04 03:23:28;;;;;;;0.00;0.00;;;14.10;83.20;;;;;;5076564;22;115281;-60
2022/07/04 03:25:31;;;;;;;0.00;0.00;;;14.10;83.40;;;;;;5075195;22;114374;-59
2022/07/04 03:27:34;;;;;;;0.03;0.00;;;14.10;83.40;;;;;;5075886;22;114801;-60
2022/07/04 03:29:37;;;;;;;0.00;0.00;;;14.10;83.60;;;;;;5076424;22;115651;-59
2022/07/04 03:31:40;;;;;;;0.10;0.00;;;14.10;83.60;;;;;;5076687;22;114836;-60
2022/07/04 03:33:45;;;;;;;0.00;0.00;;;14.10;83.80;;;;;;5076630;22;113961;-61
2022/07/04 03:35:48;;;;;;;0.05;0.00;;;14.10;83.80;;;;;;5077289;22;115237;-60
2022/07/04 03:37:54;;;;;;;0.00;0.00;;;14.20;83.90;;;;;;5076371;22;114651;-61
2022/07/04 03:39:57;;;;;;;0.00;0.00;;;14.20;84.00;;;;;;5075682;22;114763;-61
2022/07/04 03:42:00;;;;;;;0.00;0.00;;;14.20;84.00;;;;;;5050066;23;114785;-61
2022/07/04 03:44:04;;;;;;;0.00;0.00;;;14.20;83.90;;;;;;5076882;22;115479;-60
2022/07/04 03:46:07;;;;;;;0.00;0.00;;;14.20;84.00;;;;;;5074130;22;113928;-60
2022/07/04 03:48:10;;;;;;;0.00;0.00;;;14.20;84.10;;;;;;5076399;22;114827;-60
2022/07/04 03:50:15;;;;;;;0.00;0.00;;;14.20;84.10;;;;;;5076446;22;115692;-61
2022/07/04 03:52:18;;;;;;;0.00;0.00;;;14.20;84.10;;;;;;5076686;22;115475;-60
2022/07/04 03:54:21;;;;;;;0.00;0.00;;;14.20;84.10;;;;;;5077568;22;115215;-61
2022/07/04 03:56:24;;;;;;;0.00;0.00;;;14.20;84.10;;;;;;5078539;22;114872;-60
2022/07/04 03:58:28;;;;;;;0.00;0.00;;;14.30;84.20;;;;;;5076584;22;114010;-61
2022/07/04 04:00:31;;;;;;;0.00;0.00;;;14.30;84.40;;;;;;5078317;22;114629;-60
2022/07/04 04:02:34;;;;;;;0.00;0.00;;;14.20;84.30;;;;;;5076900;22;114993;-60
2022/07/04 04:06:59;;;;;;;;;;;14.20;84.40;;;;;;5076862;22;114919;-61
2022/07/04 04:09:03;;;;;;;0.00;0.00;;;14.20;86.00;;;;;;5078622;22;115306;-60
2022/07/04 04:11:12;;;;;;;0.00;0.00;;;14.10;84.50;;;;;;5076519;22;114845;-61
2022/07/04 04:13:15;;;;;;;0.00;0.00;;;14.10;84.40;;;;;;5077543;22;115335;-61
2022/07/04 04:15:18;;;;;;;0.00;0.00;;;14.20;84.40;;;;;;5076990;22;113955;-61
2022/07/04 04:17:21;;;;;;;0.00;0.00;;;14.20;84.60;;;;;;5076191;22;114269;-61
2022/07/04 04:19:24;;;;;;;0.03;0.00;;;14.20;84.70;;;;;;5076741;22;115353;-61
2022/07/04 04:21:27;;;;;;;0.00;0.00;;;14.20;84.90;;;;;;5051701;23;114952;-61
2022/07/04 04:23:32;;;;;;;0.00;0.00;;;14.20;85.20;;;;;;5077490;22;114955;-61
2022/07/04 04:25:35;;;;;;;0.00;0.00;;;14.30;85.20;;;;;;5075855;22;114142;-61
2022/07/04 04:27:38;;;;;;;0.00;0.00;;;14.40;85.80;;;;;;5076762;22;114767;-61
2022/07/04 04:29:41;;;;;;;0.00;0.00;;;14.40;85.30;;;;;;5076437;22;114938;-61
2022/07/04 04:31:44;;;;;;;0.10;0.08;;;14.40;85.40;;;;;;5077171;22;115114;-61
2022/07/04 04:33:47;;;;;;;0.00;0.00;;;14.50;85.50;;;;;;5051124;23;114853;-61
2022/07/04 04:35:50;;;;;;;0.00;0.00;;;14.60;85.50;;;;;;5078086;22;115106;-61
2022/07/04 04:37:54;;;;;;;0.00;0.00;;;14.60;85.70;;;;;;5050565;23;114935;-61
2022/07/04 04:39:58;;;;;;;0.00;0.00;;;14.70;85.60;;;;;;5078018;22;115030;-61
2022/07/04 04:42:03;;;;;;;0.00;0.00;;;14.70;85.60;;;;;;5076970;22;114900;-61
2022/07/04 04:44:06;;;;;;;0.00;0.00;;;14.80;85.50;;;;;;5077323;22;114860;-62
2022/07/04 04:46:10;;;;;;;0.00;0.00;;;14.80;85.40;;;;;;5076950;22;115779;-62
2022/07/04 04:48:14;;;;;;;0.00;0.00;;;14.90;85.50;;;;;;5075678;22;115132;-61
2022/07/04 04:50:17;;;;;;;0.00;0.00;;;14.90;85.50;;;;;;5076780;22;114840;-61
2022/07/04 04:52:20;;;;;;;0.00;0.00;;;14.90;85.50;;;;;;5049815;23;116456;-62
2022/07/04 04:54:23;;;;;;;0.00;0.00;;;15.00;85.50;;;;;;5077422;22;115456;-61
2022/07/04 04:56:28;;;;;;;0.00;0.00;;;15.00;85.40;;;;;;5075633;22;114540;-61
2022/07/04 04:58:31;;;;;;;0.00;0.00;;;15.10;86.20;;;;;;5076893;22;115266;-62
2022/07/04 05:00:34;;;;;;;0.00;0.00;;;15.20;85.70;;;;;;5076736;22;115630;-62
2022/07/04 05:02:37;;;;;;;0.00;0.00;;;15.20;85.80;;;;;;5050555;23;114920;-61
2022/07/04 05:04:41;;;;;;;0.00;0.00;;;15.40;86.00;;;;;;5076199;22;114712;-61
2022/07/04 05:06:45;;;;;;;0.00;0.00;;;15.40;85.90;;;;;;5076564;22;114873;-61
2022/07/04 05:08:48;;;;;;;0.00;0.00;;;15.60;85.90;;;;;;5077189;22;114650;-62
2022/07/04 05:10:53;;;;;;;0.00;0.00;;;15.70;85.70;;;;;;5077143;22;114805;-61
2022/07/04 05:12:58;;;;;;;0.00;0.00;;;15.80;85.40;;;;;;5076397;22;114388;-62
2022/07/04 05:15:01;;;;;;;0.00;0.00;;;15.90;85.20;;;;;;5076464;22;113926;-61
2022/07/04 05:17:04;;;;;;;0.00;0.00;;;15.90;85.00;;;;;;5075889;22;115631;-61
2022/07/04 05:19:07;;;;;;;0.00;0.00;;;16.00;84.80;;;;;;5077198;22;115045;-62
2022/07/04 05:21:10;;;;;;;0.00;0.00;;;16.00;84.60;;;;;;5076636;22;115341;-61
2022/07/04 05:23:14;;;;;;;0.00;0.00;;;16.10;84.40;;;;;;5051264;23;114745;-62
2022/07/04 05:25:17;;;;;;;0.00;0.00;;;16.20;84.20;;;;;;5077907;22;114904;-62
2022/07/04 05:27:20;;;;;;;0.00;0.00;;;16.20;83.90;;;;;;5077078;22;114687;-62
2022/07/04 05:29:24;;;;;;;0.00;0.00;;;16.30;83.80;;;;;;5077086;22;114891;-61
2022/07/04 05:31:28;;;;;;;0.00;0.00;;;16.40;83.70;;;;;;5077168;22;115115;-61
2022/07/04 05:33:31;;;;;;;0.00;0.00;;;16.40;83.60;;;;;;5077131;22;116204;-62
2022/07/04 05:35:34;;;;;;;0.00;0.00;;;16.60;83.60;;;;;;5076043;22;114316;-62
2022/07/04 05:37:37;;;;;;;0.00;0.00;;;16.70;83.60;;;;;;5075857;22;114050;-61
2022/07/04 05:39:41;;;;;;;0.00;0.00;;;16.80;83.20;;;;;;5077743;22;114921;-62
2022/07/04 05:41:44;;;;;;;0.00;0.00;;;16.80;82.90;;;;;;5077506;22;114985;-62
2022/07/04 05:43:47;;;;;;;0.00;0.00;;;16.90;82.70;;;;;;5078015;22;115282;-62
2022/07/04 05:45:51;;;;;;;0.00;0.00;;;16.90;82.50;;;;;;5077541;22;114868;-62
2022/07/04 05:47:55;;;;;;;0.00;0.00;;;17.00;82.70;;;;;;5077473;22;114909;-62
2022/07/04 05:49:58;;;;;;;0.00;0.00;;;17.10;83.00;;;;;;5075639;22;114277;-62
2022/07/04 05:52:02;;;;;;;0.03;0.00;;;17.20;83.60;;;;;;5076840;22;115405;-62
2022/07/04 05:54:05;;;;;;;0.00;0.00;;;17.30;84.10;;;;;;5050143;23;114266;-62
2022/07/04 05:56:08;;;;;;;0.00;0.00;;;17.50;84.50;;;;;;5076979;22;114586;-62
2022/07/04 05:58:11;;;;;;;0.00;0.00;;;17.80;84.40;;;;;;5077854;22;115315;-62
2022/07/04 06:00:15;;;;;;;0.00;0.00;;;18.20;84.30;;;;;;5074829;22;114008;-62
2022/07/04 06:02:19;;;;;;;0.00;0.00;;;18.60;83.40;;;;;;5076061;22;114347;-62
2022/07/04 06:04:23;;;;;;;0.00;0.00;;;18.90;81.60;;;;;;5077338;22;113517;-62
2022/07/04 06:06:26;;;;;;;0.00;0.00;;;19.30;80.90;;;;;;5077911;22;114745;-62
2022/07/04 06:08:29;;;;;;;0.00;0.00;;;19.70;79.50;;;;;;5076017;22;115298;-62
2022/07/04 06:10:33;;;;;;;0.00;0.00;;;20.10;78.20;;;;;;5076464;22;115087;-62
2022/07/04 06:12:36;;;;;;;0.00;0.00;;;20.40;76.50;;;;;;5076635;22;114795;-62
2022/07/04 06:14:39;;;;;;;0.00;0.00;;;20.60;74.80;;;;;;5076483;22;115214;-62
2022/07/04 06:16:42;;;;;;;0.00;0.00;;;20.70;74.10;;;;;;5077478;22;116024;-62
2022/07/04 06:18:47;;;;;;;0.00;0.00;;;20.90;72.40;;;;;;5077533;22;115061;-62
2022/07/04 06:20:51;;;;;;;0.00;0.00;;;21.10;71.20;;;;;;5077719;22;114754;-62
2022/07/04 06:22:54;;;;;;;0.00;0.00;;;21.40;70.40;;;;;;5076041;22;115940;-62
2022/07/04 06:24:57;;;;;;;0.00;0.00;;;21.70;68.90;;;;;;5077954;22;114773;-62
2022/07/04 06:27:00;;;;;;;0.00;0.00;;;22.00;67.90;;;;;;5077680;22;115384;-62
2022/07/04 06:29:03;;;;;;;0.00;0.00;;;22.50;67.10;;;;;;5076760;22;114900;-62
2022/07/04 06:31:06;;;;;;;0.00;0.00;;;22.80;65.70;;;;;;5076393;22;114889;-62
2022/07/04 06:33:09;;;;;;;0.00;0.00;;;23.10;64.30;;;;;;5077293;22;115322;-62
2022/07/04 06:37:35;;;;;;;0.00;0.00;;;23.70;62.30;;;;;;5076687;22;113987;-62
2022/07/04 06:39:40;;;;;;;0.00;0.00;;;24.10;60.90;;;;;;5076949;22;114738;-62
2022/07/04 06:41:45;;;;;;;0.00;0.00;;;24.30;60.40;;;;;;5077368;22;114939;-59
2022/07/04 06:43:49;;;;;;;0.00;0.00;;;24.30;58.80;;;;;;5077536;22;115050;-59
2022/07/04 06:45:52;;;;;;;0.00;0.00;;;24.00;58.50;;;;;;5077548;22;115379;-59
2022/07/04 06:47:56;;;;;;;0.00;0.00;;;23.70;59.50;;;;;;5074922;22;113877;-59
2022/07/04 06:49:59;;;;;;;0.00;0.00;;;23.50;59.40;;;;;;5077735;22;114753;-60
2022/07/04 06:52:23;;;;;;;0.00;0.00;;;23.40;59.40;;;;;;5076078;22;114422;-62
2022/07/04 06:54:26;;;;;;;0.00;0.00;;;23.50;58.90;;;;;;5077506;22;114710;-62
2022/07/04 06:56:29;;;;;;;0.00;0.00;;;23.70;58.80;;;;;;5077963;22;114901;-59
2022/07/04 06:58:33;;;;;;;0.00;0.00;;;24.10;59.00;;;;;;5076866;22;114878;-60
2022/07/04 07:00:37;;;;;;;0.00;0.00;;;24.50;57.40;;;;;;5077057;22;115216;-60
2022/07/04 07:02:40;;;;;;;0.00;0.00;;;25.00;56.30;;;;;;5076739;22;114795;-60
2022/07/04 07:04:43;;;;;;;0.00;0.00;;;25.20;55.20;;;;;;5051190;23;114729;-60
2022/07/04 07:06:46;;;;;;;0.00;0.00;;;25.20;54.50;;;;;;5076714;22;114113;-60
2022/07/04 07:08:51;;;;;;;0.00;0.00;;;25.40;54.50;;;;;;5077221;22;114713;-60
2022/07/04 07:10:54;;;;;;;0.00;0.00;;;25.40;53.60;;;;;;5077428;22;114743;-60
2022/07/04 07:12:57;;;;;;;0.00;0.00;;;25.30;53.50;;;;;;5076266;22;114372;-60
2022/07/04 07:15:00;;;;;;;0.00;0.00;;;25.30;53.30;;;;;;5077280;22;114668;-60
2022/07/04 07:17:04;;;;;;;0.00;0.00;;;25.30;53.70;;;;;;5077962;22;115370;-60
2022/07/04 07:19:09;;;;;;;0.00;0.00;;;25.10;53.00;;;;;;5078657;22;114891;-60
2022/07/04 07:21:12;;;;;;;0.00;0.00;;;24.80;52.50;;;;;;5078368;22;114859;-60
2022/07/04 07:23:15;;;;;;;0.00;0.00;;;24.50;52.40;;;;;;5077131;22;114536;-60
2022/07/04 07:25:20;;;;;;;0.00;0.00;;;24.30;52.60;;;;;;5077933;22;114618;-60
2022/07/04 07:27:23;;;;;;;0.00;0.00;;;23.90;52.90;;;;;;5076719;22;113876;-60
2022/07/04 07:29:26;;;;;;;0.00;0.00;;;23.60;53.50;;;;;;5078113;22;114827;-60
2022/07/04 07:31:29;;;;;;;0.00;0.00;;;23.30;54.00;;;;;;5077962;22;115954;-60
2022/07/04 07:33:33;;;;;;;0.00;0.00;;;23.00;54.30;;;;;;5076878;22;114997;-60
2022/07/04 07:35:36;;;;;;;0.00;0.00;;;22.80;54.60;;;;;;5077616;22;114981;-62
2022/07/04 07:37:39;;;;;;;0.00;0.00;;;22.60;55.10;;;;;;5077744;22;114897;-62
2022/07/04 07:39:42;;;;;;;0.00;0.00;;;22.40;55.20;;;;;;5077963;22;115128;-62
2022/07/04 07:41:48;;;;;;;0.00;0.00;;;22.10;54.60;;;;;;5078842;22;116014;-60
2022/07/04 07:43:53;;;;;;;0.00;0.00;;;22.00;54.50;;;;;;5077863;22;114149;-61
2022/07/04 07:45:56;;;;;;;0.00;0.00;;;21.90;54.30;;;;;;5076034;22;114891;-61
2022/07/04 07:48:00;;;;;;;0.00;0.00;;;21.90;54.20;;;;;;5077264;22;115060;-61
2022/07/04 07:50:04;;;;;;;0.00;0.00;;;21.90;54.20;;;;;;5051235;23;116629;-61
2022/07/04 07:52:07;;;;;;;0.00;0.00;;;21.90;54.10;;;;;;5077377;22;113795;-61
2022/07/04 07:54:10;;;;;;;0.00;0.00;;;22.10;54.20;;;;;;5077560;22;115023;-61
2022/07/04 07:56:19;;;;;;;0.00;0.00;;;22.50;54.00;;;;;;5078637;22;114723;-61
2022/07/04 07:58:24;;;;;;;0.00;0.00;;;23.10;53.80;;;;;;5076451;22;113983;-61
2022/07/04 08:00:27;;;;;;;0.00;0.00;;;23.80;53.70;;;;;;5076676;22;115992;-60
2022/07/04 08:05:22;;;;;;;0.00;0.00;;;25.10;51.60;;;;;;4978968;23;114258;-60
2022/07/04 08:07:25;;;;;;;0.00;0.00;;;25.90;50.90;;;;;;5029952;22;114795;-60
2022/07/04 08:09:29;;;;;;;0.00;0.00;;;26.50;49.50;;;;;;5078979;22;114782;-60
2022/07/04 08:11:32;;;;;;;0.10;0.00;;;27.30;48.40;;;;;;5052159;23;115075;-60
2022/07/04 08:13:37;;;;;;;0.00;0.00;;;27.80;47.40;;;;;;5076785;22;114217;-60
2022/07/04 08:15:40;;;;;;;0.00;0.00;;;28.30;46.50;;;;;;5078560;22;115744;-60
2022/07/04 08:17:44;;;;;;;0.00;0.00;;;29.00;45.70;;;;;;5077354;22;114711;-60
2022/07/04 08:19:48;;;;;;;0.00;0.00;;;29.50;44.50;;;;;;5078025;22;113810;-60
2022/07/04 08:21:51;;;;;;;0.00;0.00;;;29.70;43.40;;;;;;5078669;22;114815;-61
2022/07/04 08:24:14;;;;;;;0.00;0.00;;;29.70;42.00;;;;;;5079210;22;115183;-60
2022/07/04 08:26:22;;;;;;;0.00;0.00;;;29.30;41.50;;;;;;5077642;22;114608;-60
2022/07/04 08:28:26;;;;;;;0.00;0.00;;;29.10;41.20;;;;;;5078380;22;115128;-60
2022/07/04 08:30:30;;;;;;;0.00;0.00;;;28.60;41.00;;;;;;5079237;22;115371;-60
2022/07/04 08:32:33;;;;;;;0.00;0.00;;;28.20;41.40;;;;;;5077666;22;113935;-60
2022/07/04 08:34:37;;;;;;;0.00;0.00;;;27.90;41.90;;;;;;5078441;22;114404;-60
2022/07/04 08:36:40;;;;;;;0.00;0.00;;;27.50;41.90;;;;;;5077127;22;114067;-60
2022/07/04 08:38:43;;;;;;;0.00;0.00;;;27.10;41.80;;;;;;5078488;22;114786;-60
2022/07/04 08:40:47;;;;;;;0.00;0.00;;;26.70;42.00;;;;;;5080220;22;114705;-60
2022/07/04 08:42:50;;;;;;;0.00;0.00;;;26.20;42.30;;;;;;5079668;22;116153;-60
2022/07/04 08:44:55;;;;;;;0.00;0.00;;;26.00;43.00;;;;;;5080030;22;114733;-60
2022/07/04 08:46:59;;;;;;;0.00;0.00;;;25.90;43.40;;;;;;5080317;22;114903;-60
2022/07/04 08:49:09;;;;;;;0.00;0.00;;;26.10;44.10;;;;;;5053776;23;115221;-60
2022/07/04 08:51:17;;;;;;;0.00;0.00;;;26.20;44.00;;;;;;5080576;22;114890;-60
2022/07/04 08:53:24;;;;;;;0.00;0.00;;;26.10;43.00;;;;;;5079396;22;114584;-60
2022/07/04 09:00:22;;;;;;;0.00;0.00;;;24.70;44.00;;;;;;4979360;23;115537;-60
2022/07/04 09:02:29;;;;;;;0.00;0.00;;;24.30;44.90;;;;;;5029987;22;115533;-60
2022/07/04 09:04:34;;;;;;;0.00;0.00;;;24.10;45.10;;;;;;5079236;22;115004;-60
2022/07/04 09:06:37;;;;;;;0.00;0.00;;;24.10;45.10;;;;;;5077832;22;114114;-59
2022/07/04 09:08:40;;;;;;;0.00;0.00;;;24.10;45.20;;;;;;5078717;22;114299;-60
2022/07/04 09:10:44;;;;;;;0.00;0.00;;;24.10;45.70;;;;;;5079074;22;113806;-59
2022/07/04 09:12:47;;;;;;;0.00;0.00;;;24.30;45.80;;;;;;5080333;22;114158;-60
2022/07/04 09:15:14;;;;;;;0.00;0.00;;;24.30;45.90;;;;;;5078611;22;114018;-60
2022/07/04 09:17:17;;;;;;;0.00;0.00;;;24.30;45.80;;;;;;5079054;22;115422;-60
2022/07/04 09:19:23;;;;;;;0.00;0.00;;;24.30;45.80;;;;;;5078575;22;114872;-60
2022/07/04 09:21:45;;;;;;;0.00;0.00;;;24.30;45.60;;;;;;5079457;22;114972;-60
2022/07/04 09:23:48;;;;;;;0.00;0.00;;;24.10;45.40;;;;;;5077371;22;113957;-60
2022/07/04 09:26:08;;;;;;;0.00;0.00;;;24.00;46.00;;;;;;5078193;22;114912;-60
2022/07/04 09:28:11;;;;;;;0.00;0.00;;;24.00;46.90;;;;;;5075044;22;114437;-60
2022/07/04 09:30:17;;;;;;;0.00;0.00;;;24.00;47.20;;;;;;5077006;22;113991;-60
2022/07/04 09:32:33;;;;;;;0.00;0.00;;;24.50;47.30;;;;;;5078338;22;114700;-60
2022/07/04 09:34:55;;;;;;;0.00;0.00;;;25.00;47.30;;;;;;5078039;22;114995;-61
2022/07/04 09:36:58;;;;;;;0.00;0.00;;;25.80;45.30;;;;;;5077927;22;114943;-60
2022/07/04 09:39:12;;;;;;;0.00;0.00;;;26.50;45.10;;;;;;5077657;22;113740;-59
2022/07/04 09:41:29;;;;;;;0.00;0.00;;;27.00;44.30;;;;;;5077789;22;114731;-59
2022/07/04 09:43:32;;;;;;;0.00;0.00;;;27.60;42.60;;;;;;5077144;22;114091;-60
2022/07/04 09:45:36;;;;;;;0.00;0.00;;;28.00;40.80;;;;;;5076376;22;114271;-61
2022/07/04 09:47:40;;;;;;;0.00;0.00;;;28.30;40.00;;;;;;5077323;22;114766;-63
2022/07/04 09:49:59;;;;;;;0.00;0.00;;;28.70;39.10;;;;;;5077782;22;114778;-60
2022/07/04 09:52:02;;;;;;;0.00;0.00;;;29.10;36.90;;;;;;5078712;22;114732;-60
2022/07/04 09:54:26;;;;;;;0.00;0.00;;;29.40;37.80;;;;;;5078750;22;115959;-60
2022/07/04 09:56:40;;;;;;;0.00;0.00;;;29.80;36.20;;;;;;5079139;22;114793;-60
2022/07/04 09:58:57;;;;;;;0.00;0.00;;;30.30;36.00;;;;;;5077754;22;114908;-60
2022/07/04 10:01:01;;;;;;;0.00;0.00;;;30.90;36.20;;;;;;5077567;22;113906;-60
2022/07/04 10:03:18;;;;;;;0.00;0.00;;;31.00;36.30;;;;;;5078384;22;114958;-60
2022/07/04 10:05:25;;;;;;;0.00;0.00;;;30.60;33.30;;;;;;5078349;22;113988;-60
2022/07/04 10:07:36;;;;;;;0.00;0.00;;;30.40;35.20;;;;;;5077060;22;114236;-60
2022/07/04 10:09:39;;;;;;;0.00;0.00;;;30.50;34.20;;;;;;5078860;22;114749;-61
2022/07/04 10:11:44;;;;;;;0.00;0.00;;;30.40;35.20;;;;;;5077297;22;114702;-61
2022/07/04 10:13:49;;;;;;;0.00;0.00;;;30.10;34.50;;;;;;5078071;22;114892;-60
2022/07/04 10:15:52;;;;;;;0.00;0.00;;;29.70;35.20;;;;;;5078259;22;115058;-60
2022/07/04 10:17:55;;;;;;;0.00;0.00;;;29.30;35.00;;;;;;5078478;22;115721;-60
2022/07/04 10:19:59;;;;;;;0.00;0.00;;;28.80;35.50;;;;;;5078650;22;114881;-60
2022/07/04 10:22:05;;;;;;;0.00;0.00;;;28.50;35.80;;;;;;5078851;22;114694;-60
2022/07/04 10:24:11;;;;;;;0.00;0.00;;;28.40;35.90;;;;;;5078893;22;113666;-60
2022/07/04 10:26:18;;;;;;;0.00;0.00;;;28.30;35.30;;;;;;5078171;22;113640;-60
2022/07/04 10:28:22;;;;;;;0.00;0.00;;;28.10;36.00;;;;;;5078850;22;114775;-60
2022/07/04 10:30:27;;;;;;;0.00;0.00;;;28.10;36.60;;;;;;5078716;22;113709;-60
2022/07/04 10:32:31;;;;;;;0.00;0.00;;;28.20;36.50;;;;;;5079019;22;115342;-61
2022/07/04 10:34:40;;;;;;;0.00;0.00;;;28.50;36.50;;;;;;5078569;22;114754;-60
2022/07/04 10:36:52;;;;;;;0.00;0.00;;;28.40;35.50;;;;;;5079495;22;115532;-60
2022/07/04 10:39:03;;;;;;;0.00;0.00;;;28.10;35.20;;;;;;5079028;22;114769;-62
2022/07/04 10:41:07;;;;;;;0.00;0.00;;;28.00;35.60;;;;;;5079011;22;115382;-60
2022/07/04 10:43:40;;;;;;;0.00;0.00;;;28.00;35.60;;;;;;5077031;22;115517;-61
2022/07/04 10:45:44;;;;;;;0.00;0.00;;;28.00;34.90;;;;;;5078106;22;114821;-61
2022/07/04 10:47:58;;;;;;;0.00;0.00;;;27.70;35.70;;;;;;5078250;22;115351;-59
2022/07/04 10:50:02;;;;;;;0.00;0.00;;;27.40;35.70;;;;;;5078837;22;115072;-60
2022/07/04 10:52:13;;;;;;;0.00;0.00;;;27.50;36.70;;;;;;5078376;22;114758;-60
2022/07/04 10:54:20;;;;;;;0.00;0.00;;;27.80;36.90;;;;;;5077960;22;114828;-60
2022/07/04 10:56:38;;;;;;;0.00;0.00;;;28.00;36.50;;;;;;5078752;22;114808;-59